createdAt,value
2019-04-21T00:00:13.180Z,55.82
2019-04-21T00:01:12.395Z,55.43
2019-04-21T00:02:09.144Z,56.01
2019-04-21T00:03:15.207Z,55.72
2019-04-21T00:04:21.117Z,55.43
2019-04-21T00:05:35.157Z,55.43
2019-04-21T00:06:31.556Z,55.62
2019-04-21T00:07:29.684Z,55.53
2019-04-21T00:08:30.959Z,56.29
2019-04-21T00:09:36.027Z,56.38
2019-04-21T00:10:36.071Z,55.72
2019-04-21T00:11:29.879Z,55.53
2019-04-21T00:12:27.314Z,55.34
2019-04-21T00:13:23.831Z,55.53
2019-04-21T00:14:17.913Z,55.43
2019-04-21T00:15:19.387Z,55.62
2019-04-21T00:16:12.035Z,55.34
2019-04-21T00:17:12.980Z,56.10
2019-04-21T00:18:10.443Z,56.01
2019-04-21T00:19:14.327Z,56.20
2019-04-21T00:20:17.792Z,56.77
2019-04-21T00:21:15.222Z,56.77
2019-04-21T00:22:19.408Z,56.87
2019-04-21T00:23:24.292Z,57.06
2019-04-21T00:24:21.541Z,56.58
2019-04-21T00:25:25.214Z,56.87
2019-04-21T00:26:25.377Z,56.77
2019-04-21T00:27:24.467Z,56.84
2019-04-21T00:28:33.169Z,56.65
2019-04-21T00:29:31.389Z,56.74
2019-04-21T00:30:26.941Z,56.74
2019-04-21T00:31:24.638Z,56.74
2019-04-21T00:32:22.182Z,57.22
2019-04-21T00:33:13.887Z,56.74
2019-04-21T00:34:06.714Z,56.87
2019-04-21T00:35:11.688Z,56.67
2019-04-21T00:36:13.336Z,56.93
2019-04-21T00:37:18.917Z,56.55
2019-04-21T00:38:25.026Z,56.84
2019-04-21T00:39:41.572Z,57.12
2019-04-21T00:40:27.811Z,57.12
2019-04-21T00:41:29.682Z,57.22
2019-04-21T00:42:22.739Z,57.70
2019-04-21T00:43:23.373Z,57.50
2019-04-21T00:44:17.342Z,57.79
2019-04-21T00:45:20.636Z,57.41
2019-04-21T00:46:17.482Z,58.17
2019-04-21T00:47:28.944Z,58.94
2019-04-21T00:48:32.952Z,59.60
2019-04-21T00:49:19.695Z,58.84
2019-04-21T00:50:27.863Z,59.41
2019-04-21T00:51:33.154Z,59.99
2019-04-21T00:52:43.661Z,58.94
2019-04-21T00:53:37.125Z,58.55
2019-04-21T00:54:33.109Z,58.65
2019-04-21T00:56:30.427Z,59.22
2019-04-21T00:57:32.571Z,60.36
2019-04-21T00:58:28.678Z,60.33
2019-04-21T00:59:28.205Z,59.76
2019-04-21T01:00:42.241Z,59.86
2019-04-21T01:01:28.398Z,59.12
2019-04-21T01:02:26.437Z,59.48
2019-04-21T01:03:26.427Z,59.76
2019-04-21T01:04:30.663Z,59.48
2019-04-21T01:05:33.867Z,59.57
2019-04-21T01:06:29.082Z,60.24
2019-04-21T01:07:30.466Z,60.62
2019-04-21T01:08:25.150Z,59.57
2019-04-21T01:09:25.933Z,59.67
2019-04-21T01:10:17.476Z,60.24
2019-04-21T01:11:23.846Z,59.67
2019-04-21T01:12:32.110Z,59.67
2019-04-21T01:13:27.286Z,59.28
2019-04-21T01:14:30.092Z,59.95
2019-04-21T01:15:32.519Z,60.05
2019-04-21T01:16:27.590Z,59.57
2019-04-21T01:17:23.213Z,59.57
2019-04-21T01:18:22.981Z,60.05
2019-04-21T01:19:21.130Z,58.81
2019-04-21T01:20:16.162Z,59.76
2019-04-21T01:21:13.739Z,60.14
2019-04-21T01:22:02.590Z,58.72
2019-04-21T01:23:02.501Z,58.81
2019-04-21T01:24:11.823Z,60.05
2019-04-21T01:25:13.307Z,59.86
2019-04-21T01:26:18.018Z,59.86
2019-04-21T01:27:11.154Z,59.86
2019-04-21T01:28:18.918Z,60.05
2019-04-21T01:29:22.434Z,60.14
2019-04-21T01:30:22.318Z,59.76
2019-04-21T01:31:17.530Z,59.67
2019-04-21T01:32:23.718Z,59.67
2019-04-21T01:33:27.757Z,59.67
2019-04-21T01:34:22.022Z,59.86
2019-04-21T01:35:21.434Z,60.33
2019-04-21T01:36:18.110Z,60.43
2019-04-21T01:37:25.198Z,60.62
2019-04-21T01:38:21.610Z,60.91
2019-04-21T01:39:29.411Z,60.43
2019-04-21T01:41:25.496Z,60.43
2019-04-21T01:42:21.138Z,60.24
2019-04-21T01:43:20.080Z,60.43
2019-04-21T01:44:28.074Z,61.76
2019-04-21T01:45:22.442Z,61.76
2019-04-21T01:46:13.899Z,61.76
2019-04-21T01:47:17.481Z,61.48
2019-04-21T01:48:15.884Z,60.91
2019-04-21T01:49:11.525Z,60.52
2019-04-21T01:50:19.827Z,61.57
2019-04-21T01:51:16.039Z,61.86
2019-04-21T01:52:24.059Z,61.57
2019-04-21T01:53:23.894Z,61.10
2019-04-21T01:54:21.924Z,61.73
2019-04-21T01:55:18.337Z,61.73
2019-04-21T01:56:17.981Z,62.59
2019-04-21T01:57:19.419Z,63.07
2019-04-21T01:58:11.717Z,61.93
2019-04-21T01:59:06.891Z,62.02
2019-04-21T02:00:12.261Z,61.93
2019-04-21T02:01:21.652Z,62.78
2019-04-21T02:02:20.342Z,62.78
2019-04-21T02:03:34.421Z,63.83
2019-04-21T02:04:23.989Z,63.17
2019-04-21T02:05:27.012Z,63.83
2019-04-21T02:06:21.426Z,64.12
2019-04-21T02:07:20.643Z,64.59
2019-04-21T02:08:20.167Z,65.07
2019-04-21T02:09:15.393Z,64.87
2019-04-21T02:10:20.870Z,63.92
2019-04-21T02:11:24.530Z,63.83
2019-04-21T02:12:21.007Z,64.21
2019-04-21T02:13:17.179Z,64.02
2019-04-21T02:14:23.552Z,64.21
2019-04-21T02:15:26.869Z,63.92
2019-04-21T02:16:19.039Z,64.47
2019-04-21T02:17:19.772Z,64.97
2019-04-21T02:18:17.014Z,65.13
2019-04-21T02:19:13.876Z,65.13
2019-04-21T02:20:12.009Z,65.55
2019-04-21T02:21:14.341Z,64.97
2019-04-21T02:22:19.248Z,64.94
2019-04-21T02:23:28.263Z,64.97
2019-04-21T02:24:20.463Z,64.75
2019-04-21T02:25:20.938Z,65.03
2019-04-21T02:26:16.462Z,64.97
2019-04-21T02:27:19.231Z,65.45
2019-04-21T02:28:22.418Z,66.18
2019-04-21T02:29:20.654Z,66.66
2019-04-21T02:30:29.415Z,64.75
2019-04-21T02:31:30.528Z,63.99
2019-04-21T02:32:28.633Z,65.07
2019-04-21T02:33:36.136Z,64.28
2019-04-21T02:34:25.880Z,64.18
2019-04-21T02:36:44.814Z,65.13
2019-04-21T02:37:36.695Z,65.80
2019-04-21T02:38:34.487Z,65.61
2019-04-21T02:40:29.795Z,65.13
2019-04-21T02:41:31.157Z,66.08
2019-04-21T02:42:33.018Z,66.66
2019-04-21T02:44:31.571Z,66.56
2019-04-21T02:45:40.928Z,66.46
2019-04-21T02:46:31.304Z,66.75
2019-04-21T02:47:38.961Z,67.13
2019-04-21T02:48:28.729Z,66.08
2019-04-21T02:50:43.378Z,66.18
2019-04-21T02:51:27.950Z,66.56
2019-04-21T02:52:31.742Z,66.46
2019-04-21T02:53:30.536Z,66.08
2019-04-21T02:55:22.067Z,66.94
2019-04-21T02:56:37.525Z,67.13
2019-04-21T02:57:25.844Z,66.75
2019-04-21T02:58:34.732Z,67.51
2019-04-21T02:59:22.678Z,67.03
2019-04-21T03:02:35.484Z,68.24
2019-04-21T03:03:29.545Z,68.24
2019-04-21T03:04:28.205Z,67.76
2019-04-21T03:05:29.120Z,67.51
2019-04-21T03:06:31.447Z,67.70
2019-04-21T03:07:19.180Z,67.03
2019-04-21T03:08:40.395Z,67.70
2019-04-21T03:09:24.415Z,68.52
2019-04-21T03:10:26.636Z,68.71
2019-04-21T03:11:21.399Z,68.81
2019-04-21T03:12:18.167Z,68.90
2019-04-21T03:13:29.763Z,68.62
2019-04-21T03:18:24.321Z,70.33
2019-04-21T03:19:31.291Z,70.05
2019-04-21T03:20:23.806Z,71.09
2019-04-21T03:21:22.072Z,70.62
2019-04-21T03:22:38.200Z,70.81
2019-04-21T03:24:25.841Z,71.72
2019-04-21T03:25:39.113Z,71.72
2019-04-21T03:26:33.903Z,71.72
2019-04-21T03:28:22.672Z,71.53
2019-04-21T03:29:28.846Z,71.72
2019-04-21T03:32:55.385Z,72.39
2019-04-21T03:34:51.467Z,73.06
2019-04-21T03:36:02.139Z,73.25
2019-04-21T03:37:28.470Z,72.86
2019-04-21T03:38:37.485Z,72.49
2019-04-21T03:39:17.998Z,73.15
2019-04-21T03:41:26.881Z,73.91
2019-04-21T03:43:23.162Z,74.39
2019-04-21T03:44:26.673Z,73.91
2019-04-21T03:45:30.968Z,73.72
2019-04-21T03:46:28.230Z,74.29
2019-04-21T03:47:22.971Z,74.29
2019-04-21T03:48:38.288Z,75.15
2019-04-21T03:49:28.856Z,73.72
2019-04-21T03:51:21.415Z,74.01
2019-04-21T03:52:38.809Z,73.82
2019-04-21T03:53:43.789Z,74.77
2019-04-21T03:54:16.053Z,73.34
2019-04-21T03:56:27.214Z,73.34
2019-04-21T03:57:38.044Z,73.82
2019-04-21T03:59:21.009Z,75.24
2019-04-21T04:00:34.582Z,75.24
2019-04-21T04:02:22.974Z,75.72
2019-04-21T04:03:42.074Z,75.62
2019-04-21T04:04:30.632Z,75.72
2019-04-21T04:05:24.321Z,75.81
2019-04-21T04:06:20.598Z,76.10
2019-04-21T04:08:38.926Z,75.72
2019-04-21T04:09:41.740Z,75.91
2019-04-21T04:10:40.749Z,75.91
2019-04-21T04:12:13.448Z,75.43
2019-04-21T04:13:34.183Z,75.15
2019-04-21T04:15:20.537Z,76.10
2019-04-21T04:17:16.895Z,75.91
2019-04-21T04:18:28.311Z,75.05
2019-04-21T04:19:30.081Z,74.20
2019-04-21T04:20:22.242Z,75.15
2019-04-21T04:22:24.908Z,75.72
2019-04-21T04:24:24.436Z,75.34
2019-04-21T04:25:17.468Z,75.62
2019-04-21T04:27:33.672Z,75.34
2019-04-21T04:28:18.946Z,75.05
2019-04-21T04:29:19.823Z,75.15
2019-04-21T04:31:27.145Z,75.34
2019-04-21T04:32:23.230Z,74.48
2019-04-21T04:33:21.311Z,75.05
2019-04-21T04:34:22.339Z,76.01
2019-04-21T04:36:31.147Z,75.05
2019-04-21T04:37:28.740Z,74.77
2019-04-21T04:38:26.713Z,74.96
2019-04-21T04:39:36.536Z,74.87
2019-04-21T04:40:19.676Z,74.67
2019-04-21T04:41:33.172Z,73.34
2019-04-21T04:42:27.006Z,72.81
2019-04-21T04:43:23.294Z,73.85
2019-04-21T04:44:36.445Z,73.38
2019-04-21T04:45:26.448Z,73.76
2019-04-21T04:46:20.331Z,74.33
2019-04-21T04:47:18.423Z,73.76
2019-04-21T04:48:24.427Z,73.85
2019-04-21T04:49:23.656Z,73.10
2019-04-21T04:50:09.952Z,73.76
2019-04-21T04:51:14.510Z,73.19
2019-04-21T04:53:20.458Z,72.90
2019-04-21T04:54:19.878Z,72.71
2019-04-21T04:55:19.069Z,72.42
2019-04-21T04:57:40.090Z,74.80
2019-04-21T04:58:54.620Z,74.80
2019-04-21T05:00:18.097Z,72.05
2019-04-21T05:01:33.893Z,71.76
2019-04-21T05:03:18.910Z,72.65
2019-04-21T05:04:15.874Z,73.22
2019-04-21T05:05:23.804Z,71.61
2019-04-21T05:06:28.085Z,70.84
2019-04-21T05:07:17.290Z,71.80
2019-04-21T05:08:24.367Z,70.88
2019-04-21T05:09:15.111Z,69.54
2019-04-21T05:11:23.383Z,68.21
2019-04-21T05:12:09.271Z,67.39
2019-04-21T05:13:16.144Z,68.24
2019-04-21T05:16:26.370Z,68.44
2019-04-21T05:17:14.513Z,67.39
2019-04-21T05:18:35.082Z,66.82
2019-04-21T05:20:13.656Z,67.00
2019-04-21T05:22:14.139Z,67.04
2019-04-21T05:23:05.862Z,67.23
2019-04-21T05:24:02.146Z,66.69
2019-04-21T05:24:59.468Z,65.83
2019-04-21T05:25:54.293Z,65.26
2019-04-21T05:26:59.576Z,63.92
2019-04-21T05:27:56.335Z,63.83
2019-04-21T05:28:50.981Z,65.07
2019-04-21T05:30:15.327Z,63.76
2019-04-21T05:31:09.082Z,64.25
2019-04-21T05:32:01.472Z,64.05
2019-04-21T05:33:05.581Z,63.39
2019-04-21T05:34:03.134Z,64.53
2019-04-21T05:35:01.564Z,62.34
2019-04-21T05:36:07.681Z,62.91
2019-04-21T05:37:03.941Z,61.22
2019-04-21T05:38:03.028Z,62.37
2019-04-21T05:38:58.387Z,62.75
2019-04-21T05:39:57.957Z,61.00
2019-04-21T05:40:57.618Z,61.95
2019-04-21T05:41:50.621Z,62.81
2019-04-21T05:42:55.754Z,61.86
2019-04-21T05:44:03.837Z,62.05
2019-04-21T05:45:08.089Z,61.86
2019-04-21T05:46:21.241Z,62.24
2019-04-21T05:47:15.835Z,63.10
2019-04-21T05:48:12.235Z,63.10
2019-04-21T05:49:05.094Z,63.96
2019-04-21T05:50:00.975Z,64.34
2019-04-21T05:51:01.980Z,62.91
2019-04-21T05:51:55.624Z,61.83
2019-04-21T05:52:57.308Z,62.62
2019-04-21T05:54:10.573Z,62.91
2019-04-21T05:55:01.189Z,62.71
2019-04-21T05:56:07.075Z,62.02
2019-04-21T05:56:59.810Z,62.02
2019-04-21T05:58:02.583Z,62.49
2019-04-21T05:59:03.373Z,63.86
2019-04-21T06:00:02.645Z,63.29
2019-04-21T06:02:06.111Z,61.92
2019-04-21T06:03:04.056Z,62.88
2019-04-21T06:04:03.608Z,63.83
2019-04-21T06:06:10.762Z,62.34
2019-04-21T06:07:06.159Z,63.57
2019-04-21T06:08:00.453Z,62.71
2019-04-21T06:08:59.515Z,61.86
2019-04-21T06:09:59.456Z,62.43
2019-04-21T06:11:02.072Z,61.86
2019-04-21T06:12:02.972Z,63.29
2019-04-21T06:13:02.294Z,62.62
2019-04-21T06:14:06.069Z,61.86
2019-04-21T06:15:12.323Z,61.16
2019-04-21T06:16:04.948Z,61.95
2019-04-21T06:17:03.953Z,61.07
2019-04-21T06:18:07.905Z,62.05
2019-04-21T06:18:58.764Z,63.20
2019-04-21T06:20:01.383Z,61.95
2019-04-21T06:20:59.451Z,61.66
2019-04-21T06:21:57.441Z,61.86
2019-04-21T06:22:57.923Z,61.38
2019-04-21T06:23:57.319Z,61.47
2019-04-21T06:26:28.205Z,61.03
2019-04-21T06:27:17.659Z,59.98
2019-04-21T06:27:59.981Z,59.59
2019-04-21T06:28:59.910Z,59.50
2019-04-21T06:30:01.529Z,59.50
2019-04-21T06:32:52.763Z,59.31
2019-04-21T06:34:00.518Z,59.98
2019-04-21T06:35:14.889Z,59.78
2019-04-21T06:37:14.658Z,60.55
2019-04-21T06:37:56.544Z,60.36
2019-04-21T06:39:06.380Z,59.98
2019-04-21T06:40:15.170Z,60.27
2019-04-21T06:41:07.855Z,60.58
2019-04-21T06:41:58.481Z,60.20
2019-04-21T06:43:11.345Z,59.37
2019-04-21T06:44:09.489Z,58.70
2019-04-21T06:45:06.208Z,58.51
2019-04-21T06:46:02.211Z,58.41
2019-04-21T06:47:01.761Z,58.98
2019-04-21T06:47:57.827Z,59.84
2019-04-21T06:48:59.939Z,59.56
2019-04-21T06:49:58.599Z,58.03
2019-04-21T06:51:06.869Z,58.32
2019-04-21T06:52:07.319Z,58.19
2019-04-21T06:53:10.783Z,59.81
2019-04-21T06:55:03.326Z,60.04
2019-04-21T06:56:00.006Z,59.37
2019-04-21T06:57:10.091Z,58.80
2019-04-21T06:58:00.693Z,57.36
2019-04-21T06:58:55.506Z,57.55
2019-04-21T06:59:57.194Z,57.55
2019-04-21T07:00:56.390Z,57.75
2019-04-21T07:01:56.676Z,57.46
2019-04-21T07:04:06.867Z,56.72
2019-04-21T07:05:03.547Z,56.91
2019-04-21T07:06:04.681Z,56.79
2019-04-21T07:06:53.697Z,57.58
2019-04-21T07:08:14.845Z,57.29
2019-04-21T07:09:07.437Z,57.20
2019-04-21T07:09:59.805Z,56.62
2019-04-21T07:10:59.488Z,57.29
2019-04-21T07:11:56.811Z,56.82
2019-04-21T07:12:53.516Z,56.24
2019-04-21T07:14:14.832Z,56.72
2019-04-21T07:14:56.269Z,56.75
2019-04-21T07:16:00.586Z,56.27
2019-04-21T07:16:59.596Z,56.37
2019-04-21T07:17:57.807Z,56.30
2019-04-21T07:19:05.931Z,54.96
2019-04-21T07:19:57.102Z,54.10
2019-04-21T07:20:53.215Z,53.83
2019-04-21T07:21:51.328Z,53.45
2019-04-21T07:22:54.798Z,53.16
2019-04-21T07:24:03.147Z,52.69
2019-04-21T07:24:58.680Z,53.07
2019-04-21T07:25:54.899Z,53.58
2019-04-21T07:26:55.659Z,52.83
2019-04-21T07:27:57.084Z,51.61
2019-04-21T07:29:01.851Z,51.78
2019-04-21T07:29:59.650Z,52.19
2019-04-21T07:30:59.505Z,51.73
2019-04-21T07:31:59.893Z,50.99
2019-04-21T07:32:56.525Z,49.72
2019-04-21T07:35:00.134Z,48.13
2019-04-21T07:35:54.105Z,47.58
2019-04-21T07:36:56.073Z,47.49
2019-04-21T07:37:53.457Z,46.26
2019-04-21T07:38:49.846Z,46.04
2019-04-21T07:39:53.141Z,46.23
2019-04-21T07:40:48.382Z,46.14
2019-04-21T07:41:49.642Z,46.26
2019-04-21T07:42:47.722Z,45.44
2019-04-21T07:43:42.856Z,44.38
2019-04-21T07:44:46.390Z,43.80
2019-04-21T07:45:45.985Z,44.72
2019-04-21T07:46:45.206Z,44.05
2019-04-21T07:47:53.099Z,44.72
2019-04-21T07:48:53.553Z,44.84
2019-04-21T07:49:55.215Z,45.17
2019-04-21T07:50:52.046Z,44.13
2019-04-21T07:52:53.234Z,43.54
2019-04-21T07:53:59.586Z,44.02
2019-04-21T07:55:01.640Z,43.34
2019-04-21T07:55:31.785Z,44.76
2019-04-21T07:56:34.857Z,43.97
2019-04-21T07:57:44.201Z,44.07
2019-04-21T07:58:56.266Z,44.53
2019-04-21T08:00:08.384Z,44.28
2019-04-21T08:01:04.781Z,43.63
2019-04-21T08:01:50.039Z,42.59
2019-04-21T08:02:51.159Z,42.30
2019-04-21T08:03:56.960Z,41.67
2019-04-21T08:05:02.969Z,41.67
2019-04-21T08:05:52.614Z,40.47
2019-04-21T08:06:52.091Z,41.59
2019-04-21T08:07:52.031Z,42.14
2019-04-21T08:08:48.970Z,43.18
2019-04-21T08:09:46.441Z,44.09
2019-04-21T08:10:44.153Z,43.85
2019-04-21T08:11:44.285Z,43.29
2019-04-21T08:12:47.768Z,42.30
2019-04-21T08:14:00.598Z,41.89
2019-04-21T08:14:52.036Z,43.15
2019-04-21T08:16:04.724Z,44.52
2019-04-21T08:16:54.000Z,43.77
2019-04-21T08:17:47.288Z,41.69
2019-04-21T08:18:45.537Z,40.99
2019-04-21T08:19:43.049Z,40.97
2019-04-21T08:20:50.527Z,41.75
2019-04-21T08:21:53.062Z,40.84
2019-04-21T08:22:51.025Z,41.99
2019-04-21T08:23:48.362Z,42.42
2019-04-21T08:24:51.877Z,40.92
2019-04-21T08:25:58.889Z,40.45
2019-04-21T08:26:51.549Z,39.57
2019-04-21T08:28:58.882Z,39.01
2019-04-21T08:30:04.459Z,39.45
2019-04-21T08:30:47.853Z,40.24
2019-04-21T08:33:05.480Z,38.45
2019-04-21T08:34:55.956Z,37.67
2019-04-21T08:36:47.701Z,38.43
2019-04-21T08:37:43.352Z,38.74
2019-04-21T08:38:51.495Z,37.98
2019-04-21T08:39:56.512Z,37.15
2019-04-21T08:41:05.141Z,37.85
2019-04-21T08:41:48.455Z,38.99
2019-04-21T08:42:48.577Z,40.45
2019-04-21T08:43:44.705Z,39.49
2019-04-21T08:44:46.842Z,39.01
2019-04-21T08:45:46.859Z,38.54
2019-04-21T08:46:49.216Z,39.32
2019-04-21T08:47:50.285Z,38.83
2019-04-21T08:48:52.769Z,37.30
2019-04-21T08:49:49.162Z,36.01
2019-04-21T08:50:47.533Z,36.90
2019-04-21T08:51:48.560Z,38.02
2019-04-21T08:52:48.840Z,39.18
2019-04-21T08:53:47.574Z,38.62
2019-04-21T08:54:51.530Z,39.61
2019-04-21T08:55:50.784Z,37.48
2019-04-21T08:56:46.708Z,37.08
2019-04-21T08:57:50.849Z,37.65
2019-04-21T08:58:50.626Z,38.54
2019-04-21T08:59:46.002Z,38.33
2019-04-21T09:00:47.339Z,38.56
2019-04-21T09:01:43.069Z,39.03
2019-04-21T09:02:49.513Z,37.96
2019-04-21T09:03:43.255Z,37.54
2019-04-21T09:04:40.065Z,37.52
2019-04-21T09:05:46.721Z,38.41
2019-04-21T09:07:10.555Z,38.74
2019-04-21T09:07:49.300Z,38.48
2019-04-21T09:08:49.693Z,36.18
2019-04-21T09:10:39.578Z,36.92
2019-04-21T09:11:41.965Z,38.10
2019-04-21T09:12:43.149Z,37.12
2019-04-21T09:13:42.566Z,37.30
2019-04-21T09:14:41.917Z,37.81
2019-04-21T09:15:41.941Z,37.05
2019-04-21T09:16:40.725Z,34.42
2019-04-21T09:17:37.732Z,35.31
2019-04-21T09:18:38.073Z,35.10
2019-04-21T09:19:54.992Z,35.68
2019-04-21T09:20:47.337Z,35.97
2019-04-21T09:21:45.513Z,35.99
2019-04-21T09:22:41.535Z,35.54
2019-04-21T09:23:39.146Z,34.55
2019-04-21T09:24:42.699Z,35.52
2019-04-21T09:25:48.327Z,34.28
2019-04-21T09:26:43.519Z,34.44
2019-04-21T09:27:42.459Z,33.95
2019-04-21T09:28:35.490Z,35.52
2019-04-21T09:29:33.206Z,34.34
2019-04-21T09:30:24.079Z,35.42
2019-04-21T09:31:28.981Z,35.25
2019-04-21T09:32:26.800Z,34.07
2019-04-21T09:33:28.069Z,33.18
2019-04-21T09:34:30.499Z,33.76
2019-04-21T09:35:24.120Z,34.20
2019-04-21T09:36:25.417Z,34.31
2019-04-21T09:37:36.692Z,34.52
2019-04-21T09:38:29.930Z,35.52
2019-04-21T09:39:25.649Z,34.25
2019-04-21T09:40:30.097Z,33.15
2019-04-21T09:41:25.538Z,33.70
2019-04-21T09:42:33.349Z,35.13
2019-04-21T09:43:30.759Z,36.15
2019-04-21T09:44:30.471Z,37.41
2019-04-21T09:45:22.957Z,38.16
2019-04-21T09:46:23.196Z,38.91
2019-04-21T09:47:24.949Z,38.91
2019-04-21T09:48:24.225Z,39.31
2019-04-21T09:49:27.033Z,39.34
2019-04-21T09:50:22.169Z,38.93
2019-04-21T09:51:21.915Z,37.66
2019-04-21T09:52:25.715Z,37.68
2019-04-21T09:53:28.777Z,38.53
2019-04-21T09:54:27.742Z,38.78
2019-04-21T09:55:24.367Z,39.47
2019-04-21T09:56:32.469Z,39.09
2019-04-21T09:57:31.381Z,40.53
2019-04-21T09:58:29.343Z,39.09
2019-04-21T09:59:28.151Z,38.68
2019-04-21T10:00:25.341Z,39.26
2019-04-21T10:01:28.787Z,40.22
2019-04-21T10:02:32.782Z,41.66
2019-04-21T10:03:21.255Z,40.89
2019-04-21T10:04:20.962Z,40.51
2019-04-21T10:05:21.436Z,40.34
2019-04-21T10:06:20.870Z,40.63
2019-04-21T10:07:26.470Z,40.16
2019-04-21T10:08:20.629Z,40.16
2019-04-21T10:09:21.799Z,39.22
2019-04-21T10:10:20.479Z,38.54
2019-04-21T10:11:21.056Z,38.93
2019-04-21T10:12:20.338Z,38.54
2019-04-21T10:13:20.862Z,38.93
2019-04-21T10:14:20.169Z,38.83
2019-04-21T10:15:23.245Z,38.64
2019-04-21T10:16:20.017Z,38.26
2019-04-21T10:17:19.942Z,39.14
2019-04-21T10:18:19.869Z,38.76
2019-04-21T10:19:20.999Z,38.06
2019-04-21T10:20:20.165Z,38.45
2019-04-21T10:21:19.774Z,39.34
2019-04-21T10:22:21.008Z,40.20
2019-04-21T10:23:19.482Z,39.06
2019-04-21T10:24:20.232Z,36.85
2019-04-21T10:25:20.743Z,36.91
2019-04-21T10:26:19.256Z,37.56
2019-04-21T10:27:19.194Z,37.66
2019-04-21T10:28:19.156Z,38.20
2019-04-21T10:29:24.233Z,39.18
2019-04-21T10:30:20.109Z,40.57
2019-04-21T10:31:18.869Z,39.89
2019-04-21T10:32:21.617Z,37.87
2019-04-21T10:33:18.719Z,38.83
2019-04-21T10:34:19.145Z,38.49
2019-04-21T10:35:21.162Z,37.23
2019-04-21T10:36:19.107Z,35.96
2019-04-21T10:37:18.829Z,36.23
2019-04-21T10:38:27.971Z,37.71
2019-04-21T10:39:18.261Z,37.33
2019-04-21T10:40:18.185Z,36.09
2019-04-21T10:41:19.263Z,36.19
2019-04-21T10:42:19.423Z,35.48
2019-04-21T10:43:22.071Z,36.36
2019-04-21T10:44:19.005Z,35.98
2019-04-21T10:45:18.898Z,35.10
2019-04-21T10:46:19.057Z,35.46
2019-04-21T10:47:18.605Z,35.58
2019-04-21T10:48:18.819Z,35.98
2019-04-21T10:49:18.896Z,35.02
2019-04-21T10:50:18.359Z,35.42
2019-04-21T10:51:17.346Z,34.38
2019-04-21T10:52:17.274Z,34.00
2019-04-21T10:53:17.196Z,33.70
2019-04-21T10:54:17.886Z,33.12
2019-04-21T10:55:32.103Z,33.40
2019-04-21T10:56:25.217Z,33.14
2019-04-21T10:57:16.897Z,33.83
2019-04-21T10:58:18.210Z,32.28
2019-04-21T10:59:16.750Z,31.71
2019-04-21T11:00:17.548Z,31.63
2019-04-21T11:01:16.793Z,31.43
2019-04-21T11:02:17.054Z,32.31
2019-04-21T11:03:17.131Z,33.18
2019-04-21T11:04:21.839Z,31.49
2019-04-21T11:05:16.777Z,31.76
2019-04-21T11:06:16.887Z,32.68
2019-04-21T11:07:19.582Z,32.33
2019-04-21T11:08:24.724Z,33.04
2019-04-21T11:09:16.025Z,30.94
2019-04-21T11:10:16.175Z,29.47
2019-04-21T11:11:16.256Z,30.54
2019-04-21T11:12:15.786Z,28.51
2019-04-21T11:13:16.605Z,26.98
2019-04-21T11:14:15.639Z,27.35
2019-04-21T11:15:16.973Z,28.41
2019-04-21T11:16:15.505Z,28.83
2019-04-21T11:17:16.448Z,27.59
2019-04-21T11:18:15.713Z,27.40
2019-04-21T11:19:15.924Z,27.08
2019-04-21T11:20:15.213Z,26.50
2019-04-21T11:21:16.538Z,27.47
2019-04-21T11:22:15.076Z,28.57
2019-04-21T11:23:16.372Z,27.82
2019-04-21T11:24:16.250Z,26.18
2019-04-21T11:25:15.832Z,25.58
2019-04-21T11:26:15.904Z,25.57
2019-04-21T11:27:15.011Z,25.67
2019-04-21T11:28:14.700Z,25.74
2019-04-21T11:29:14.970Z,25.42
2019-04-21T11:30:15.654Z,26.21
2019-04-21T11:31:15.389Z,26.60
2019-04-21T11:32:14.779Z,26.53
2019-04-21T11:33:15.355Z,25.95
2019-04-21T11:34:15.370Z,26.70
2019-04-21T11:35:15.050Z,26.62
2019-04-21T11:36:15.288Z,27.45
2019-04-21T11:37:14.333Z,29.98
2019-04-21T11:38:19.036Z,28.41
2019-04-21T11:39:25.599Z,28.53
2019-04-21T11:40:17.644Z,27.36
2019-04-21T11:41:13.912Z,28.43
2019-04-21T11:42:13.726Z,30.59
2019-04-21T11:43:13.758Z,28.76
2019-04-21T11:44:14.094Z,27.11
2019-04-21T11:45:14.598Z,26.25
2019-04-21T11:46:13.467Z,28.02
2019-04-21T11:47:14.296Z,29.85
2019-04-21T11:48:14.318Z,31.42
2019-04-21T11:49:13.254Z,29.40
2019-04-21T11:50:13.191Z,29.62
2019-04-21T11:51:13.230Z,28.64
2019-04-21T11:52:13.291Z,29.80
2019-04-21T11:53:12.992Z,29.68
2019-04-21T11:54:13.026Z,29.66
2019-04-21T11:55:14.247Z,30.52
2019-04-21T11:56:12.791Z,31.07
2019-04-21T11:57:20.293Z,30.41
2019-04-21T11:58:13.922Z,30.60
2019-04-21T11:59:12.591Z,31.13
2019-04-21T12:00:13.525Z,30.45
2019-04-21T12:01:13.749Z,29.38
2019-04-21T12:02:12.392Z,30.48
2019-04-21T12:03:15.171Z,29.44
2019-04-21T12:04:13.750Z,28.28
2019-04-21T12:05:12.192Z,28.57
2019-04-21T12:06:13.257Z,28.08
2019-04-21T12:07:13.260Z,27.19
2019-04-21T12:08:23.077Z,28.07
2019-04-21T12:09:11.998Z,27.29
2019-04-21T12:10:11.860Z,27.31
2019-04-21T12:11:11.781Z,28.20
2019-04-21T12:12:11.746Z,29.57
2019-04-21T12:13:12.089Z,29.83
2019-04-21T12:14:12.081Z,30.49
2019-04-21T12:15:14.081Z,30.32
2019-04-21T12:16:12.762Z,30.92
2019-04-21T12:17:12.104Z,29.40
2019-04-21T12:18:12.124Z,27.35
2019-04-21T12:19:12.483Z,27.36
2019-04-21T12:20:11.181Z,28.18
2019-04-21T12:21:11.466Z,27.80
2019-04-21T12:22:18.205Z,27.25
2019-04-21T12:23:12.110Z,25.86
2019-04-21T12:24:11.134Z,25.79
2019-04-21T12:25:11.262Z,25.01
2019-04-21T12:26:10.782Z,25.99
2019-04-21T12:27:11.930Z,25.59
2019-04-21T12:28:12.070Z,25.41
2019-04-21T12:29:10.581Z,26.20
2019-04-21T12:30:11.444Z,25.97
2019-04-21T12:31:11.553Z,26.54
2019-04-21T12:32:10.381Z,27.03
2019-04-21T12:33:10.306Z,27.39
2019-04-21T12:34:10.262Z,28.30
2019-04-21T12:35:10.174Z,27.23
2019-04-21T12:36:11.487Z,27.11
2019-04-21T12:37:10.939Z,26.72
2019-04-21T12:38:10.869Z,27.78
2019-04-21T12:39:10.662Z,28.43
2019-04-21T12:40:10.532Z,28.04
2019-04-21T12:41:10.679Z,26.72
2019-04-21T12:42:09.708Z,25.96
2019-04-21T12:43:10.491Z,25.73
2019-04-21T12:44:10.736Z,25.92
2019-04-21T12:45:09.773Z,27.40
2019-04-21T12:46:09.710Z,26.06
2019-04-21T12:47:10.073Z,25.79
2019-04-21T12:48:10.421Z,25.80
2019-04-21T12:49:09.822Z,25.52
2019-04-21T12:50:09.184Z,26.70
2019-04-21T12:51:10.110Z,26.52
2019-04-21T12:52:09.357Z,25.65
2019-04-21T12:53:09.799Z,24.60
2019-04-21T12:54:09.854Z,24.49
2019-04-21T12:55:09.451Z,24.40
2019-04-21T12:56:09.484Z,24.45
2019-04-21T12:57:09.560Z,27.40
2019-04-21T12:58:08.648Z,26.62
2019-04-21T12:59:09.918Z,26.07
2019-04-21T13:00:09.020Z,25.70
2019-04-21T13:01:09.325Z,24.93
2019-04-21T13:02:09.505Z,24.60
2019-04-21T13:03:08.322Z,25.67
2019-04-21T13:04:08.267Z,25.76
2019-04-21T13:05:09.422Z,25.96
2019-04-21T13:06:08.125Z,26.55
2019-04-21T13:07:08.048Z,25.49
2019-04-21T13:08:09.163Z,25.70
2019-04-21T13:09:11.179Z,25.04
2019-04-21T13:10:08.540Z,24.99
2019-04-21T13:11:09.486Z,25.38
2019-04-21T13:12:08.878Z,26.58
2019-04-21T13:13:08.098Z,25.49
2019-04-21T13:14:08.251Z,24.33
2019-04-21T13:15:08.620Z,25.40
2019-04-21T13:16:07.460Z,24.41
2019-04-21T13:17:07.623Z,25.36
2019-04-21T13:18:08.161Z,25.73
2019-04-21T13:19:07.262Z,25.36
2019-04-21T13:20:07.343Z,26.01
2019-04-21T13:21:07.215Z,26.78
2019-04-21T13:22:07.850Z,27.08
2019-04-21T13:23:08.029Z,27.48
2019-04-21T13:24:07.184Z,26.32
2019-04-21T13:25:07.618Z,26.82
2019-04-21T13:26:07.983Z,27.42
2019-04-21T13:27:07.460Z,25.67
2019-04-21T13:28:06.975Z,25.98
2019-04-21T13:29:06.599Z,25.90
2019-04-21T13:30:06.526Z,25.41
2019-04-21T13:31:06.602Z,25.59
2019-04-21T13:32:08.406Z,25.86
2019-04-21T13:33:07.136Z,26.01
2019-04-21T13:34:06.292Z,27.37
2019-04-21T13:35:06.200Z,27.46
2019-04-21T13:36:07.517Z,28.13
2019-04-21T13:37:06.090Z,28.29
2019-04-21T13:38:18.243Z,30.31
2019-04-21T13:39:42.685Z,30.78
2019-04-21T13:40:24.933Z,29.90
2019-04-21T13:41:22.641Z,30.47
2019-04-21T13:42:14.437Z,31.05
2019-04-21T13:43:08.137Z,30.94
2019-04-21T13:44:05.589Z,31.60
2019-04-21T13:45:06.449Z,31.30
2019-04-21T13:46:05.875Z,32.17
2019-04-21T13:47:06.663Z,33.25
2019-04-21T13:48:06.569Z,33.34
2019-04-21T13:49:05.311Z,33.54